createdAt,value
2023-03-27T00:02:06.319Z,8.32
2023-03-27T00:04:33.094Z,7.13
2023-03-27T00:06:59.858Z,6.78
2023-03-27T00:09:27.849Z,7.65
2023-03-27T00:11:56.308Z,6.55
2023-03-27T00:14:24.089Z,6.63
2023-03-27T00:16:51.374Z,10.63
2023-03-27T00:19:19.233Z,11.88
2023-03-27T00:21:46.143Z,10.50
2023-03-27T00:24:12.746Z,7.57
2023-03-27T00:26:40.797Z,6.55
2023-03-27T00:29:08.122Z,4.03
2023-03-27T00:31:35.182Z,11.30
2023-03-27T00:34:02.724Z,16.02
2023-03-27T00:36:29.451Z,9.23
2023-03-27T00:38:56.059Z,7.15
2023-03-27T00:41:23.472Z,10.63
2023-03-27T00:43:54.274Z,9.70
2023-03-27T00:46:42.392Z,6.88
2023-03-27T00:49:12.378Z,7.97
2023-03-27T00:51:42.569Z,9.00
2023-03-27T00:54:10.874Z,12.00
2023-03-27T00:56:38.794Z,8.75
2023-03-27T00:59:12.610Z,13.43
2023-03-27T01:01:40.160Z,15.23
2023-03-27T01:04:09.016Z,13.52
2023-03-27T01:06:36.972Z,12.82
2023-03-27T01:09:04.968Z,16.67
2023-03-27T01:11:34.266Z,14.98
2023-03-27T01:14:07.126Z,11.93
2023-03-27T01:16:45.463Z,13.32
2023-03-27T01:19:32.234Z,14.73
2023-03-27T01:22:36.518Z,10.18
2023-03-27T01:25:21.438Z,14.07
2023-03-27T01:27:53.875Z,10.55
2023-03-27T01:30:24.305Z,14.82
2023-03-27T01:33:00.308Z,20.33
2023-03-27T01:35:49.075Z,7.20
2023-03-27T01:38:15.912Z,16.75
2023-03-27T01:40:54.823Z,11.00
2023-03-27T01:43:35.858Z,10.02
2023-03-27T01:46:18.499Z,10.07
2023-03-27T01:48:58.119Z,15.93
2023-03-27T01:51:52.036Z,17.17
2023-03-27T01:54:46.895Z,10.73
2023-03-27T01:57:16.351Z,11.25
2023-03-27T01:59:48.983Z,15.10
2023-03-27T02:02:28.459Z,11.63
2023-03-27T02:05:01.294Z,20.02
2023-03-27T02:07:35.467Z,14.93
2023-03-27T02:10:08.333Z,13.35
2023-03-27T02:12:40.452Z,15.02
2023-03-27T02:15:23.330Z,10.23
2023-03-27T02:17:57.220Z,9.73
2023-03-27T02:20:24.233Z,13.50
2023-03-27T02:22:50.849Z,14.43
2023-03-27T02:25:34.507Z,23.38
2023-03-27T02:28:25.576Z,11.38
2023-03-27T02:31:31.838Z,12.30
2023-03-27T02:34:08.394Z,10.30
2023-03-27T02:36:38.095Z,12.18
2023-03-27T02:39:14.589Z,11.68
2023-03-27T02:41:52.355Z,13.93
2023-03-27T02:44:46.529Z,12.98
2023-03-27T02:47:25.487Z,9.52
2023-03-27T02:49:58.277Z,15.50
2023-03-27T02:52:31.800Z,12.80
2023-03-27T02:55:06.624Z,13.90
2023-03-27T02:57:38.765Z,16.48
2023-03-27T03:00:25.543Z,11.20
2023-03-27T03:03:32.071Z,13.73
2023-03-27T03:05:59.234Z,14.30
2023-03-27T03:08:30.738Z,11.32
2023-03-27T03:11:03.368Z,12.60
2023-03-27T03:13:30.416Z,16.63
2023-03-27T03:15:57.538Z,14.73
2023-03-27T03:18:24.783Z,13.07
2023-03-27T03:20:54.614Z,13.40
2023-03-27T03:23:22.539Z,11.40
2023-03-27T03:25:56.862Z,19.80
2023-03-27T03:28:26.199Z,21.80
2023-03-27T03:30:53.872Z,13.90
2023-03-27T03:33:21.263Z,9.77
2023-03-27T03:35:51.528Z,10.95
2023-03-27T03:38:27.125Z,10.95
2023-03-27T03:40:55.667Z,13.43
2023-03-27T03:43:24.972Z,11.45
2023-03-27T03:45:52.089Z,16.42
2023-03-27T03:48:19.654Z,19.63
2023-03-27T03:50:47.904Z,8.18
2023-03-27T03:53:16.378Z,12.70
2023-03-27T03:55:44.312Z,12.10
2023-03-27T03:58:10.884Z,7.55
2023-03-27T04:00:39.321Z,12.48
2023-03-27T04:03:08.726Z,7.60
2023-03-27T04:05:37.233Z,14.75
2023-03-27T04:08:08.717Z,14.43
2023-03-27T04:10:41.467Z,12.20
2023-03-27T04:13:08.084Z,12.70
2023-03-27T04:15:35.087Z,14.50
2023-03-27T04:18:02.107Z,13.68
2023-03-27T04:20:28.937Z,12.52
2023-03-27T04:22:55.850Z,11.95
2023-03-27T04:25:24.750Z,13.75
2023-03-27T04:27:51.561Z,16.63
2023-03-27T04:30:23.219Z,14.43
2023-03-27T04:32:51.661Z,12.60
2023-03-27T04:35:20.122Z,18.15
2023-03-27T04:37:48.195Z,12.98
2023-03-27T04:40:18.223Z,12.10
2023-03-27T04:42:45.149Z,10.93
2023-03-27T04:45:13.237Z,15.98
2023-03-27T04:47:40.180Z,21.77
2023-03-27T04:50:08.344Z,11.60
2023-03-27T04:52:35.359Z,11.40
2023-03-27T04:55:02.304Z,13.40
2023-03-27T04:57:31.091Z,11.98
2023-03-27T04:59:59.295Z,22.10
2023-03-27T05:02:26.526Z,11.48
2023-03-27T05:04:58.565Z,17.45
2023-03-27T05:07:26.643Z,15.52
2023-03-27T05:09:53.406Z,12.18
2023-03-27T05:12:21.534Z,14.00
2023-03-27T05:14:48.637Z,19.95
2023-03-27T05:17:16.667Z,12.82
2023-03-27T05:19:43.559Z,18.60
2023-03-27T05:22:10.421Z,14.65
2023-03-27T05:24:37.750Z,17.35
2023-03-27T05:27:05.051Z,13.15
2023-03-27T05:29:47.494Z,16.02
2023-03-27T05:32:14.672Z,14.57
2023-03-27T05:34:42.412Z,20.60
2023-03-27T05:37:09.597Z,11.65
2023-03-27T05:39:36.917Z,18.73
2023-03-27T05:42:03.897Z,15.43
2023-03-27T05:44:30.412Z,17.38
2023-03-27T05:46:56.946Z,15.10
2023-03-27T05:49:23.523Z,14.90
2023-03-27T05:51:50.973Z,24.67
2023-03-27T05:54:17.511Z,13.98
2023-03-27T05:56:44.148Z,10.80
2023-03-27T05:59:10.795Z,20.73
2023-03-27T06:01:37.469Z,15.02
2023-03-27T06:04:04.646Z,17.02
2023-03-27T06:06:32.894Z,11.02
2023-03-27T06:08:59.497Z,17.15
2023-03-27T06:11:26.211Z,11.77
2023-03-27T06:13:52.871Z,12.98
2023-03-27T06:16:22.854Z,11.27
2023-03-27T06:18:49.624Z,18.92
2023-03-27T06:21:16.234Z,17.45
2023-03-27T06:23:42.965Z,14.05
2023-03-27T06:26:09.682Z,18.10
2023-03-27T06:28:36.800Z,16.30
2023-03-27T06:31:04.124Z,14.93
2023-03-27T06:33:31.360Z,13.75
2023-03-27T06:36:00.723Z,17.73
2023-03-27T06:38:32.556Z,14.90
2023-03-27T06:41:00.067Z,23.42
2023-03-27T06:43:26.776Z,14.43
2023-03-27T06:45:53.803Z,14.40
2023-03-27T06:48:22.636Z,10.10
2023-03-27T06:50:51.389Z,10.02
2023-03-27T06:53:27.235Z,18.25
2023-03-27T06:55:56.539Z,16.75
2023-03-27T06:58:23.868Z,15.30
2023-03-27T07:00:51.214Z,12.43
2023-03-27T07:03:19.769Z,16.02
2023-03-27T07:05:46.446Z,14.20
2023-03-27T07:08:23.643Z,11.93
2023-03-27T07:11:08.064Z,14.85
2023-03-27T07:13:38.346Z,13.57
2023-03-27T07:16:05.499Z,14.52
2023-03-27T07:18:32.405Z,23.42
2023-03-27T07:20:59.333Z,15.23
2023-03-27T07:23:26.737Z,20.88
2023-03-27T07:26:00.342Z,16.58
2023-03-27T07:28:26.975Z,10.63
2023-03-27T07:30:53.511Z,15.23
2023-03-27T07:33:20.180Z,22.05
2023-03-27T07:35:48.525Z,12.63
2023-03-27T07:38:16.096Z,13.77
2023-03-27T07:40:44.307Z,9.35
2023-03-27T07:43:11.084Z,10.63
2023-03-27T07:45:37.993Z,12.70
2023-03-27T07:48:11.026Z,12.63
2023-03-27T07:50:38.103Z,19.25
2023-03-27T07:53:06.699Z,15.00
2023-03-27T07:55:36.874Z,10.75
2023-03-27T07:58:04.159Z,23.05
2023-03-27T08:00:32.559Z,20.13
2023-03-27T08:03:10.303Z,14.95
2023-03-27T08:05:38.475Z,12.73
2023-03-27T08:08:05.732Z,13.57
2023-03-27T08:10:32.388Z,15.02
2023-03-27T08:12:59.023Z,15.70
2023-03-27T08:15:25.909Z,13.73
2023-03-27T08:17:55.472Z,19.05
2023-03-27T08:20:24.103Z,14.15
2023-03-27T08:22:52.530Z,16.05
2023-03-27T08:25:19.642Z,14.30
2023-03-27T08:27:46.697Z,9.57
2023-03-27T08:30:16.650Z,7.53
2023-03-27T08:32:44.057Z,14.40
2023-03-27T08:35:10.813Z,9.02
2023-03-27T08:37:37.718Z,14.40
2023-03-27T08:40:11.093Z,8.18
2023-03-27T08:42:41.622Z,11.10
2023-03-27T08:45:19.874Z,10.90
2023-03-27T08:47:53.737Z,12.65
2023-03-27T08:50:48.428Z,14.77
2023-03-27T08:53:29.591Z,10.55
2023-03-27T08:55:56.591Z,6.63
2023-03-27T08:58:23.653Z,13.77
2023-03-27T09:01:09.472Z,9.82
2023-03-27T09:03:47.310Z,8.35
2023-03-27T09:06:27.845Z,14.32
2023-03-27T09:09:09.548Z,14.07
2023-03-27T09:11:37.064Z,8.40
2023-03-27T09:14:19.656Z,8.80
2023-03-27T09:16:50.127Z,9.32
2023-03-27T09:19:32.595Z,10.27
2023-03-27T09:22:07.993Z,8.57
2023-03-27T09:24:49.038Z,9.60
2023-03-27T09:27:23.340Z,12.25
2023-03-27T09:30:06.249Z,13.18
2023-03-27T09:32:33.980Z,12.35
2023-03-27T09:35:00.769Z,10.30
2023-03-27T09:37:27.559Z,11.73
2023-03-27T09:39:55.294Z,9.10
2023-03-27T09:42:30.648Z,8.85
2023-03-27T09:45:02.052Z,9.75
2023-03-27T09:47:38.397Z,8.90
2023-03-27T09:50:44.669Z,13.13
2023-03-27T09:53:12.823Z,11.30
2023-03-27T09:56:12.789Z,10.93
2023-03-27T09:58:46.455Z,8.43
2023-03-27T10:01:15.857Z,12.95
2023-03-27T10:03:50.126Z,5.28
2023-03-27T10:06:49.163Z,8.52
2023-03-27T10:09:30.448Z,8.85
2023-03-27T10:12:07.280Z,8.73
2023-03-27T10:14:46.136Z,9.40
2023-03-27T10:17:26.221Z,9.98
2023-03-27T10:20:00.077Z,11.60
2023-03-27T10:22:34.364Z,12.70
2023-03-27T10:25:04.775Z,9.10
2023-03-27T10:27:34.996Z,11.07
2023-03-27T10:30:02.921Z,11.48
2023-03-27T10:32:46.997Z,8.32
2023-03-27T10:35:22.999Z,12.13
2023-03-27T10:37:51.529Z,9.77
2023-03-27T10:40:24.641Z,5.40
2023-03-27T10:42:51.376Z,11.73
2023-03-27T10:45:21.044Z,7.65
2023-03-27T10:47:53.721Z,6.70
2023-03-27T10:50:53.475Z,5.72
2023-03-27T10:53:45.989Z,5.22
2023-03-27T10:56:31.171Z,4.53
2023-03-27T10:59:14.282Z,4.40
2023-03-27T11:01:46.330Z,10.40
2023-03-27T11:07:04.084Z,5.40
2023-03-27T11:09:58.938Z,2.80
2023-03-27T11:12:28.873Z,1.85
2023-03-27T11:15:07.655Z,15.48
2023-03-27T11:17:53.937Z,4.95
2023-03-27T11:20:33.521Z,8.82
2023-03-27T11:23:07.488Z,5.45
2023-03-27T11:25:46.486Z,4.28
2023-03-27T11:28:22.844Z,1.83
2023-03-27T11:31:12.140Z,6.57
2023-03-27T11:33:55.048Z,3.42
2023-03-27T11:36:41.612Z,1.42
2023-03-27T11:39:16.984Z,4.65
2023-03-27T11:41:50.189Z,1.80
2023-03-27T11:44:16.788Z,2.35
2023-03-27T11:46:51.530Z,3.25
2023-03-27T11:49:27.192Z,5.10
2023-03-27T11:52:17.058Z,2.90
2023-03-27T11:55:10.055Z,5.13
2023-03-27T11:57:53.166Z,4.95
2023-03-27T12:00:43.410Z,2.10
2023-03-27T12:03:43.032Z,2.33
2023-03-27T12:06:23.193Z,1.80
2023-03-27T12:09:12.868Z,3.83
2023-03-27T12:11:45.573Z,2.95
2023-03-27T12:14:52.824Z,2.10
2023-03-27T12:17:30.959Z,2.10
2023-03-27T12:20:05.528Z,2.33
2023-03-27T12:22:44.726Z,2.65
2023-03-27T12:25:23.474Z,1.05
2023-03-27T12:28:01.136Z,3.50
2023-03-27T12:30:42.232Z,4.15
2023-03-27T12:33:27.263Z,3.10
2023-03-27T12:35:57.818Z,4.00
2023-03-27T12:38:24.331Z,2.20
2023-03-27T12:41:10.971Z,1.42
2023-03-27T12:43:43.852Z,2.45
2023-03-27T12:46:13.922Z,3.22
2023-03-27T12:48:55.649Z,1.77
2023-03-27T12:51:57.844Z,3.58
2023-03-27T12:54:27.375Z,4.07
2023-03-27T12:57:15.477Z,4.63
2023-03-27T12:59:52.692Z,3.10
2023-03-27T13:02:34.391Z,4.43
2023-03-27T13:05:27.600Z,2.60
2023-03-27T13:08:03.634Z,3.90
2023-03-27T13:10:59.364Z,6.25
2023-03-27T13:13:59.540Z,3.40
2023-03-27T13:17:03.963Z,5.05
2023-03-27T13:20:25.164Z,2.67
2023-03-27T13:23:29.192Z,4.03
2023-03-27T13:26:06.757Z,5.47
2023-03-27T13:28:37.187Z,1.80
2023-03-27T13:31:11.317Z,3.78
2023-03-27T13:33:47.598Z,2.55
2023-03-27T13:36:23.085Z,2.03
2023-03-27T13:38:52.794Z,2.90
2023-03-27T13:41:44.280Z,3.65
2023-03-27T13:44:42.224Z,1.93
2023-03-27T13:47:30.615Z,2.58
2023-03-27T13:50:14.134Z,2.05
2023-03-27T13:53:05.348Z,3.55
2023-03-27T13:55:42.109Z,3.80
2023-03-27T13:58:53.097Z,4.50
2023-03-27T14:01:38.047Z,2.90
2023-03-27T14:04:45.932Z,3.03
2023-03-27T14:07:37.137Z,2.00
2023-03-27T14:10:47.852Z,1.90
2023-03-27T14:13:28.799Z,2.05
2023-03-27T14:16:16.548Z,2.25
2023-03-27T14:19:12.205Z,3.13
2023-03-27T14:21:58.653Z,2.35
2023-03-27T14:24:32.474Z,2.95
2023-03-27T14:27:00.655Z,3.15
2023-03-27T14:29:28.923Z,2.33
2023-03-27T14:32:02.974Z,6.10
2023-03-27T14:34:40.169Z,3.92
2023-03-27T14:37:32.912Z,4.25
2023-03-27T14:40:00.847Z,1.92
2023-03-27T14:42:32.890Z,3.47
2023-03-27T14:45:22.986Z,3.45
2023-03-27T14:48:04.739Z,4.60
2023-03-27T14:50:34.501Z,4.10
2023-03-27T14:53:06.136Z,4.35
2023-03-27T14:55:34.784Z,3.97
2023-03-27T14:58:11.074Z,2.00
2023-03-27T15:00:40.550Z,3.50
2023-03-27T15:03:16.491Z,2.60
2023-03-27T15:06:14.099Z,3.08
2023-03-27T15:08:46.626Z,3.78
2023-03-27T15:11:22.112Z,1.98
2023-03-27T15:13:49.384Z,4.00
2023-03-27T15:16:25.463Z,5.25
2023-03-27T15:19:09.756Z,5.10
2023-03-27T15:21:50.970Z,4.40
2023-03-27T15:24:40.822Z,4.83
2023-03-27T15:27:17.223Z,2.58
2023-03-27T15:29:58.619Z,3.40
2023-03-27T15:32:32.848Z,3.92
2023-03-27T15:35:03.480Z,6.53
2023-03-27T15:37:31.908Z,3.00
2023-03-27T15:40:41.856Z,3.88
2023-03-27T15:43:09.074Z,2.10
2023-03-27T15:45:41.238Z,2.65
2023-03-27T15:48:16.777Z,3.88
2023-03-27T15:51:00.650Z,4.55
2023-03-27T15:53:32.354Z,2.58
2023-03-27T15:56:01.896Z,3.25
2023-03-27T15:58:34.438Z,5.00
2023-03-27T16:01:03.448Z,4.38
2023-03-27T16:03:46.049Z,3.28
2023-03-27T16:06:22.002Z,4.65
2023-03-27T16:08:49.022Z,4.22
2023-03-27T16:11:32.775Z,4.32
2023-03-27T16:13:59.438Z,5.57
2023-03-27T16:16:29.035Z,4.13
2023-03-27T16:18:59.523Z,2.50
2023-03-27T16:21:27.782Z,4.32
2023-03-27T16:23:54.332Z,4.00
2023-03-27T16:26:26.591Z,3.70
2023-03-27T16:28:59.746Z,3.05
2023-03-27T16:31:26.462Z,2.38
2023-03-27T16:33:53.452Z,3.08
2023-03-27T16:36:28.288Z,3.70
2023-03-27T16:38:54.863Z,3.53
2023-03-27T16:41:22.133Z,4.30
2023-03-27T16:43:48.972Z,3.55
2023-03-27T16:46:23.229Z,4.72
2023-03-27T16:48:53.591Z,5.03
2023-03-27T16:51:22.072Z,3.50
2023-03-27T16:53:48.672Z,3.45
2023-03-27T16:56:15.234Z,3.42
2023-03-27T16:58:42.955Z,6.00
2023-03-27T17:01:09.974Z,3.65
2023-03-27T17:03:37.236Z,5.00
2023-03-27T17:06:09.614Z,2.55
2023-03-27T17:08:37.263Z,3.85
2023-03-27T17:11:06.344Z,5.32
2023-03-27T17:13:33.068Z,3.53
2023-03-27T17:16:00.159Z,8.30
2023-03-27T17:18:26.951Z,5.63
2023-03-27T17:20:53.648Z,5.53
2023-03-27T17:23:20.221Z,6.50
2023-03-27T17:25:47.215Z,4.35
2023-03-27T17:28:14.053Z,2.92
2023-03-27T17:30:56.546Z,5.00
2023-03-27T17:33:24.082Z,9.27
2023-03-27T17:35:50.804Z,6.32
2023-03-27T17:38:22.548Z,4.85
2023-03-27T17:40:49.677Z,3.47
2023-03-27T17:43:16.464Z,5.57
2023-03-27T17:45:43.608Z,4.45
2023-03-27T17:48:11.475Z,4.97
2023-03-27T17:50:38.760Z,4.88
2023-03-27T17:53:05.594Z,6.78
2023-03-27T17:55:32.451Z,7.22
2023-03-27T17:58:09.007Z,4.75
2023-03-27T18:00:38.562Z,5.45
2023-03-27T18:03:06.682Z,6.60
2023-03-27T18:05:41.040Z,5.82
2023-03-27T18:08:10.254Z,5.18
2023-03-27T18:10:37.889Z,2.60
2023-03-27T18:13:04.602Z,3.83
2023-03-27T18:15:31.468Z,8.02
2023-03-27T18:17:58.040Z,3.20
2023-03-27T18:20:24.682Z,5.28
2023-03-27T18:22:51.211Z,5.88
2023-03-27T18:25:17.822Z,4.85
2023-03-27T18:27:44.971Z,5.60
2023-03-27T18:30:14.526Z,4.60
2023-03-27T18:32:42.722Z,5.00
2023-03-27T18:35:13.937Z,5.03
2023-03-27T18:37:42.374Z,5.75
2023-03-27T18:40:11.313Z,4.50
2023-03-27T18:42:39.711Z,3.95
2023-03-27T18:45:07.956Z,6.45
2023-03-27T18:47:36.239Z,6.68
2023-03-27T18:50:03.886Z,6.50
2023-03-27T18:52:30.740Z,8.82
2023-03-27T18:54:57.252Z,6.55
2023-03-27T18:57:24.193Z,5.82
2023-03-27T18:59:51.949Z,12.48
2023-03-27T19:02:18.596Z,5.07
2023-03-27T19:04:45.389Z,8.38
2023-03-27T19:07:11.969Z,5.20
2023-03-27T19:09:41.749Z,7.97
2023-03-27T19:12:09.157Z,8.20
2023-03-27T19:14:36.611Z,9.57
2023-03-27T19:17:03.561Z,9.13
2023-03-27T19:19:32.021Z,6.03
2023-03-27T19:21:58.804Z,9.38
2023-03-27T19:24:25.360Z,5.13
2023-03-27T19:26:52.839Z,3.17
2023-03-27T19:29:19.727Z,5.13
2023-03-27T19:31:46.270Z,6.03
2023-03-27T19:34:12.809Z,8.85
2023-03-27T19:36:39.566Z,5.93
2023-03-27T19:39:07.131Z,7.07
2023-03-27T19:41:33.745Z,7.15
2023-03-27T19:44:00.620Z,8.45
2023-03-27T19:46:28.560Z,6.22
2023-03-27T19:48:55.836Z,4.50
2023-03-27T19:51:23.008Z,9.63
2023-03-27T19:53:49.581Z,7.15
2023-03-27T19:56:16.230Z,6.03
2023-03-27T19:58:42.794Z,7.63
2023-03-27T20:01:09.725Z,5.70
2023-03-27T20:03:38.503Z,7.47
2023-03-27T20:06:12.961Z,10.43
2023-03-27T20:08:42.158Z,7.85
2023-03-27T20:11:08.890Z,9.27
2023-03-27T20:13:45.423Z,8.02
2023-03-27T20:16:21.073Z,7.35
2023-03-27T20:18:55.152Z,8.55
2023-03-27T20:21:24.697Z,6.30
2023-03-27T20:23:55.670Z,11.30
2023-03-27T20:26:23.626Z,4.23
2023-03-27T20:28:51.317Z,6.28
2023-03-27T20:31:20.000Z,9.45
2023-03-27T20:33:47.557Z,4.65
2023-03-27T20:36:14.906Z,6.57
2023-03-27T20:38:41.440Z,8.00
2023-03-27T20:41:08.036Z,11.70
2023-03-27T20:43:38.985Z,9.35
2023-03-27T20:46:06.899Z,7.68
2023-03-27T20:48:40.423Z,10.98
2023-03-27T20:51:14.516Z,5.00
2023-03-27T20:53:42.731Z,8.43
2023-03-27T20:56:12.321Z,10.05
2023-03-27T20:58:40.822Z,10.18
2023-03-27T21:01:09.872Z,13.77
2023-03-27T21:03:38.822Z,8.57
2023-03-27T21:06:14.918Z,6.45
2023-03-27T21:08:41.762Z,9.13
2023-03-27T21:11:08.809Z,6.47
2023-03-27T21:13:35.483Z,6.97
2023-03-27T21:16:02.784Z,12.57
2023-03-27T21:18:29.739Z,7.78
2023-03-27T21:20:56.399Z,6.20
2023-03-27T21:23:23.083Z,12.63
2023-03-27T21:25:51.743Z,14.63
2023-03-27T21:28:18.361Z,5.35
2023-03-27T21:30:46.255Z,6.93
2023-03-27T21:33:16.146Z,7.10
2023-03-27T21:35:45.783Z,6.40
2023-03-27T21:38:13.869Z,10.93
2023-03-27T21:40:40.886Z,6.97
2023-03-27T21:43:09.069Z,8.98
2023-03-27T21:45:36.581Z,14.55
2023-03-27T21:48:03.255Z,10.70
2023-03-27T21:50:29.909Z,10.43
2023-03-27T21:52:56.608Z,7.72
2023-03-27T21:55:23.229Z,7.43
2023-03-27T21:57:49.871Z,11.52
2023-03-27T22:00:16.780Z,10.90
2023-03-27T22:02:43.379Z,9.73
2023-03-27T22:05:10.297Z,6.88
2023-03-27T22:07:37.056Z,7.72
2023-03-27T22:10:06.302Z,4.53
2023-03-27T22:12:36.869Z,9.05
2023-03-27T22:15:05.039Z,4.63
2023-03-27T22:17:31.687Z,7.63
2023-03-27T22:19:59.197Z,6.90
2023-03-27T22:22:26.516Z,9.77
2023-03-27T22:24:53.037Z,8.30
2023-03-27T22:27:19.541Z,6.82
2023-03-27T22:29:46.116Z,9.93
2023-03-27T22:32:12.719Z,9.85
2023-03-27T22:34:39.255Z,8.60
2023-03-27T22:37:06.764Z,9.82
2023-03-27T22:39:33.564Z,11.23
2023-03-27T22:42:00.315Z,11.70
2023-03-27T22:44:29.723Z,10.18
2023-03-27T22:46:56.663Z,11.25
2023-03-27T22:49:23.233Z,8.95
2023-03-27T22:51:49.742Z,7.38
2023-03-27T22:54:18.517Z,10.38
2023-03-27T22:56:46.335Z,6.80
2023-03-27T22:59:14.127Z,11.25
2023-03-27T23:01:40.804Z,8.45
2023-03-27T23:04:07.486Z,7.70
2023-03-27T23:06:34.191Z,8.63
2023-03-27T23:09:00.765Z,7.72
2023-03-27T23:11:27.318Z,9.32
2023-03-27T23:13:53.872Z,9.07
2023-03-27T23:16:20.604Z,6.22
2023-03-27T23:18:47.136Z,7.32
2023-03-27T23:21:16.847Z,17.52
2023-03-27T23:23:44.075Z,8.32
2023-03-27T23:26:11.126Z,8.70
2023-03-27T23:28:40.606Z,8.45
2023-03-27T23:31:13.522Z,13.05
2023-03-27T23:33:42.720Z,12.93
2023-03-27T23:36:13.236Z,11.68
2023-03-27T23:38:41.391Z,10.38
2023-03-27T23:41:10.240Z,5.90
2023-03-27T23:43:37.378Z,10.55
2023-03-27T23:46:08.613Z,10.63
2023-03-27T23:48:35.426Z,10.75
2023-03-27T23:51:02.028Z,9.90
2023-03-27T23:53:29.260Z,10.27
2023-03-27T23:55:58.040Z,16.13
2023-03-27T23:58:28.787Z,14.23
